< < Back
Terminal Aerodrome Forecast


Current Version              Previous Versions:   1  2  3  4  5  6  7  8  9  

Terminal Aerodrome Forecast

276
FTUS42 KFFC 291726
TAFMCN
TAF
KMCN 291726Z 2918/3018 27010G16KT P6SM SCT050
     FM300100 26004KT P6SM FEW250
     FM301400 28005KT P6SM FEW030
     FM301600 29007KT P6SM SCT050=

Latest METAR

988
SAUS80 KWBC 300200
MTRMCN
METAR KMCN 300153Z AUTO 00000KT 10SM CLR 29/20 A2997 RMK AO2 SLP143
T02940200 TSNO


USA.gov is the U.S. government's official web portal to all federal, state and local government web resources and services.